createdAt,value
2019-03-27T00:00:41.146Z,49.00
2019-03-27T00:03:09.610Z,49.20
2019-03-27T00:05:38.150Z,49.30
2019-03-27T00:08:06.590Z,49.30
2019-03-27T00:10:35.014Z,49.40
2019-03-27T00:13:03.556Z,49.40
2019-03-27T00:15:31.991Z,49.60
2019-03-27T00:18:00.455Z,49.50
2019-03-27T00:20:28.911Z,49.70
2019-03-27T00:22:57.375Z,49.60
2019-03-27T00:25:25.794Z,49.60
2019-03-27T00:27:54.270Z,49.50
2019-03-27T00:30:22.707Z,49.60
2019-03-27T00:32:51.471Z,49.70
2019-03-27T00:35:19.942Z,49.80
2019-03-27T00:37:48.406Z,49.90
2019-03-27T00:40:17.502Z,50.20
2019-03-27T00:42:45.923Z,50.20
2019-03-27T00:45:25.851Z,50.50
2019-03-27T00:47:45.165Z,50.50
2019-03-27T00:50:13.829Z,50.70
2019-03-27T00:52:42.238Z,50.90
2019-03-27T00:55:11.170Z,51.10
2019-03-27T00:57:39.585Z,51.20
2019-03-27T01:00:13.136Z,51.30
2019-03-27T01:02:41.580Z,51.40
2019-03-27T01:05:10.515Z,51.70
2019-03-27T01:07:38.924Z,51.70
2019-03-27T01:10:07.896Z,51.80
2019-03-27T01:12:36.319Z,52.00
2019-03-27T01:15:05.397Z,52.10
2019-03-27T01:17:33.907Z,52.30
2019-03-27T01:20:02.727Z,52.30
2019-03-27T01:22:31.144Z,52.30
2019-03-27T01:24:59.616Z,52.40
2019-03-27T01:27:28.027Z,52.50
2019-03-27T01:29:56.510Z,52.60
2019-03-27T01:32:24.946Z,52.60
2019-03-27T01:34:53.394Z,52.80
2019-03-27T01:37:21.814Z,53.00
2019-03-27T01:39:50.676Z,53.90
2019-03-27T01:42:19.112Z,54.30
2019-03-27T01:44:47.573Z,54.40
2019-03-27T01:47:15.999Z,54.30
2019-03-27T01:49:44.439Z,54.20
2019-03-27T01:52:12.861Z,54.40
2019-03-27T01:54:41.310Z,54.50
2019-03-27T01:57:09.732Z,54.40
2019-03-27T01:59:38.190Z,54.60
2019-03-27T02:02:06.612Z,54.50
2019-03-27T02:04:35.071Z,54.50
2019-03-27T02:07:03.499Z,54.30
2019-03-27T02:09:31.961Z,54.30
2019-03-27T02:12:00.378Z,54.40
2019-03-27T02:14:28.909Z,54.40
2019-03-27T02:16:57.350Z,54.20
2019-03-27T02:19:25.863Z,54.10
2019-03-27T02:21:54.312Z,54.00
2019-03-27T02:24:22.792Z,54.10
2019-03-27T02:26:51.203Z,54.30
2019-03-27T02:29:19.680Z,54.30
2019-03-27T02:31:48.432Z,54.40
2019-03-27T02:34:16.873Z,54.60
2019-03-27T02:36:45.337Z,54.50
2019-03-27T02:39:13.770Z,54.80
2019-03-27T02:41:42.945Z,55.00
2019-03-27T02:44:11.398Z,56.00
2019-03-27T02:46:39.948Z,56.40
2019-03-27T02:49:08.356Z,56.60
2019-03-27T02:51:36.824Z,57.30
2019-03-27T02:54:05.246Z,57.90
2019-03-27T02:56:33.715Z,58.00
2019-03-27T02:59:02.133Z,58.20
2019-03-27T03:01:30.597Z,58.10
2019-03-27T03:03:59.002Z,59.30
2019-03-27T03:06:27.473Z,59.10
2019-03-27T03:08:55.903Z,59.20
2019-03-27T03:11:24.797Z,58.90
2019-03-27T03:13:53.216Z,58.70
2019-03-27T03:16:22.159Z,58.20
2019-03-27T03:18:50.620Z,57.90
2019-03-27T03:21:19.130Z,58.60
2019-03-27T03:23:47.600Z,58.60
2019-03-27T03:26:16.067Z,59.00
2019-03-27T03:28:44.488Z,59.60
2019-03-27T03:31:12.954Z,59.60
2019-03-27T03:33:41.365Z,59.80
2019-03-27T03:36:09.840Z,60.30
2019-03-27T03:38:38.268Z,60.60
2019-03-27T03:41:06.819Z,61.00
2019-03-27T03:43:35.237Z,62.30
2019-03-27T03:46:03.802Z,63.60
2019-03-27T03:48:32.224Z,64.70
2019-03-27T03:51:02.808Z,65.10
2019-03-27T03:53:31.843Z,65.40
2019-03-27T03:56:01.404Z,66.10
2019-03-27T03:58:31.672Z,66.00
2019-03-27T04:01:01.102Z,66.20
2019-03-27T04:03:32.026Z,66.80
2019-03-27T04:06:00.491Z,67.70
2019-03-27T04:08:28.911Z,68.20
2019-03-27T04:10:57.815Z,68.20
2019-03-27T04:13:26.255Z,68.10
2019-03-27T04:15:54.687Z,67.80
2019-03-27T04:18:23.157Z,67.40
2019-03-27T04:20:51.628Z,66.70
2019-03-27T04:23:20.120Z,66.60
2019-03-27T04:26:07.907Z,66.80
2019-03-27T04:28:18.810Z,68.00
2019-03-27T04:30:47.242Z,69.00
2019-03-27T04:33:15.692Z,68.70
2019-03-27T04:35:44.128Z,68.90
2019-03-27T04:38:12.575Z,69.70
2019-03-27T04:40:40.996Z,69.90
2019-03-27T04:43:10.206Z,69.80
2019-03-27T04:45:38.634Z,69.90
2019-03-27T04:48:07.099Z,70.70
2019-03-27T04:50:35.531Z,71.30
2019-03-27T04:53:04.094Z,71.30
2019-03-27T04:55:32.931Z,72.50
2019-03-27T04:58:01.386Z,72.90
2019-03-27T05:00:29.795Z,73.10
2019-03-27T05:02:58.266Z,74.50
2019-03-27T05:05:26.695Z,75.90
2019-03-27T05:07:55.192Z,76.50
2019-03-27T05:10:23.700Z,76.80
2019-03-27T05:12:52.579Z,76.60
2019-03-27T05:15:20.994Z,77.20
2019-03-27T05:17:49.455Z,78.10
2019-03-27T05:20:18.281Z,79.50
2019-03-27T05:22:46.766Z,80.20
2019-03-27T05:25:15.182Z,80.70
2019-03-27T05:27:43.652Z,80.40
2019-03-27T05:30:14.350Z,79.60
2019-03-27T05:32:42.813Z,78.80
2019-03-27T05:35:11.675Z,77.80
2019-03-27T05:37:40.185Z,77.70
2019-03-27T05:40:08.914Z,78.60
2019-03-27T05:42:38.298Z,78.20
2019-03-27T05:45:08.162Z,78.30
2019-03-27T05:47:37.018Z,79.00
2019-03-27T05:50:06.355Z,78.80
2019-03-27T05:52:34.809Z,79.80
2019-03-27T05:55:03.415Z,79.30
2019-03-27T05:57:32.266Z,79.20
2019-03-27T06:00:00.798Z,79.10
2019-03-27T06:02:29.766Z,80.40
2019-03-27T06:04:58.925Z,81.10
2019-03-27T06:07:28.226Z,79.30
2019-03-27T06:09:57.406Z,79.10
2019-03-27T06:12:26.251Z,78.80
2019-03-27T06:14:54.689Z,79.80
2019-03-27T06:17:24.035Z,80.40
2019-03-27T06:19:52.703Z,81.10
2019-03-27T06:22:21.143Z,81.80
2019-03-27T06:24:50.326Z,81.30
2019-03-27T06:27:19.554Z,81.20
2019-03-27T06:29:48.059Z,82.70
2019-03-27T06:32:16.470Z,83.70
2019-03-27T06:34:44.910Z,84.00
2019-03-27T06:37:13.306Z,84.60
2019-03-27T06:39:42.451Z,85.60
2019-03-27T06:42:11.668Z,83.80
2019-03-27T06:44:40.502Z,83.90
2019-03-27T06:47:08.874Z,82.90
2019-03-27T06:49:38.062Z,84.50
2019-03-27T06:52:06.461Z,83.10
2019-03-27T06:54:34.891Z,82.20
2019-03-27T06:57:03.327Z,82.30
2019-03-27T06:59:31.771Z,80.30
2019-03-27T07:02:00.166Z,76.80
2019-03-27T07:04:28.602Z,74.20
2019-03-27T07:06:57.010Z,74.40
2019-03-27T07:09:26.928Z,72.50
2019-03-27T07:11:55.366Z,72.40
2019-03-27T07:14:23.810Z,70.10
2019-03-27T07:16:52.961Z,71.40
2019-03-27T07:19:22.263Z,69.40
2019-03-27T07:21:51.987Z,64.20
2019-03-27T07:24:20.431Z,61.20
2019-03-27T07:26:48.830Z,59.20
2019-03-27T07:29:19.141Z,58.20
2019-03-27T07:31:47.775Z,57.70
2019-03-27T07:34:16.602Z,57.30
2019-03-27T07:36:45.186Z,55.70
2019-03-27T07:39:14.635Z,56.80
2019-03-27T07:41:43.033Z,54.70
2019-03-27T07:44:11.563Z,53.70
2019-03-27T07:46:39.983Z,54.20
2019-03-27T07:49:08.382Z,52.60
2019-03-27T07:51:36.879Z,52.10
2019-03-27T07:54:05.302Z,52.10
2019-03-27T07:56:33.739Z,51.60
2019-03-27T07:59:02.138Z,51.00
2019-03-27T08:01:30.585Z,51.20
2019-03-27T08:03:58.989Z,50.30
2019-03-27T08:06:27.426Z,50.00
2019-03-27T08:08:55.822Z,49.30
2019-03-27T08:11:24.330Z,48.90
2019-03-27T08:13:52.882Z,49.40
2019-03-27T08:16:21.754Z,48.50
2019-03-27T08:18:50.166Z,48.60
2019-03-27T08:21:18.610Z,47.40
2019-03-27T08:23:47.781Z,47.80
2019-03-27T08:26:17.085Z,46.70
2019-03-27T08:28:46.145Z,46.80
2019-03-27T08:31:15.142Z,45.70
2019-03-27T08:33:48.251Z,46.00
2019-03-27T08:36:16.613Z,45.90
2019-03-27T08:38:45.111Z,45.80
2019-03-27T08:41:13.742Z,44.40
2019-03-27T08:43:42.723Z,45.20
2019-03-27T08:46:11.180Z,45.30
2019-03-27T08:48:39.638Z,45.70
2019-03-27T08:51:08.065Z,43.60
2019-03-27T08:53:36.510Z,44.30
2019-03-27T08:56:05.750Z,44.00
2019-03-27T08:58:34.183Z,42.80
2019-03-27T09:01:02.822Z,42.10
2019-03-27T09:03:31.349Z,40.70
2019-03-27T09:05:59.767Z,41.30
2019-03-27T09:08:28.183Z,40.00
2019-03-27T09:10:56.664Z,40.70
2019-03-27T09:13:25.565Z,41.70
2019-03-27T09:15:53.978Z,41.50
2019-03-27T09:18:22.523Z,42.80
2019-03-27T09:20:51.011Z,42.20
2019-03-27T09:23:19.472Z,41.30
2019-03-27T09:25:48.022Z,41.00
2019-03-27T09:28:16.539Z,40.70
2019-03-27T09:30:44.969Z,40.00
2019-03-27T09:33:13.442Z,40.30
2019-03-27T09:35:41.863Z,40.60
2019-03-27T09:38:10.301Z,40.40
2019-03-27T09:40:38.985Z,41.20
2019-03-27T09:43:07.611Z,40.80
2019-03-27T09:45:36.039Z,41.20
2019-03-27T09:48:04.733Z,41.30
2019-03-27T09:50:33.151Z,40.30
2019-03-27T09:53:02.004Z,41.00
2019-03-27T09:55:30.551Z,41.60
2019-03-27T09:57:58.971Z,40.20
2019-03-27T10:01:07.857Z,40.60
2019-03-27T10:03:36.355Z,40.10
2019-03-27T10:06:05.062Z,39.70
2019-03-27T10:08:33.547Z,39.40
2019-03-27T10:11:02.089Z,39.90
2019-03-27T10:13:30.504Z,38.80
2019-03-27T10:15:59.123Z,38.10
2019-03-27T10:18:27.505Z,38.50
2019-03-27T10:20:55.911Z,37.30
2019-03-27T10:23:24.427Z,38.10
2019-03-27T10:25:53.179Z,38.30
2019-03-27T10:28:21.617Z,38.20
2019-03-27T10:30:50.693Z,36.70
2019-03-27T10:33:19.107Z,37.40
2019-03-27T10:35:47.702Z,36.90
2019-03-27T10:38:16.287Z,36.30
2019-03-27T10:40:45.094Z,36.50
2019-03-27T10:43:13.520Z,36.80
2019-03-27T10:45:41.998Z,36.90
2019-03-27T10:48:10.402Z,37.50
2019-03-27T10:50:39.161Z,36.70
2019-03-27T10:53:07.644Z,36.50
2019-03-27T10:55:36.058Z,36.30
2019-03-27T10:58:04.474Z,35.40
2019-03-27T11:00:32.970Z,35.70
2019-03-27T11:03:01.390Z,36.60
2019-03-27T11:05:30.403Z,36.70
2019-03-27T11:07:58.967Z,35.70
2019-03-27T11:10:27.404Z,35.80
2019-03-27T11:12:55.835Z,36.70
2019-03-27T11:15:24.389Z,35.70
2019-03-27T11:17:52.822Z,35.70
2019-03-27T11:20:30.738Z,35.50
2019-03-27T11:22:52.371Z,36.80
2019-03-27T11:25:20.832Z,36.30
2019-03-27T11:27:49.243Z,34.10
2019-03-27T11:30:18.228Z,35.90
2019-03-27T11:32:46.684Z,35.00
2019-03-27T11:35:15.189Z,35.10
2019-03-27T11:37:43.735Z,35.20
2019-03-27T11:40:12.249Z,36.60
2019-03-27T11:42:40.666Z,35.90
2019-03-27T11:45:09.354Z,36.00
2019-03-27T11:47:37.750Z,36.40
2019-03-27T11:50:08.933Z,35.40
2019-03-27T11:52:37.437Z,36.00
2019-03-27T11:55:06.718Z,36.50
2019-03-27T11:57:35.135Z,36.00
2019-03-27T12:00:04.643Z,37.10
2019-03-27T12:02:33.054Z,36.60
2019-03-27T12:05:01.731Z,37.20
2019-03-27T12:07:30.213Z,36.20
2019-03-27T12:09:58.635Z,36.20
2019-03-27T12:12:27.574Z,35.90
2019-03-27T12:14:56.047Z,36.30
2019-03-27T12:17:24.459Z,36.30
2019-03-27T12:19:52.875Z,36.70
2019-03-27T12:22:21.384Z,36.20
2019-03-27T12:24:49.864Z,36.30
2019-03-27T12:27:18.284Z,35.60
2019-03-27T12:29:47.152Z,36.20
2019-03-27T12:32:15.570Z,35.70
2019-03-27T12:34:43.989Z,35.50
2019-03-27T12:37:12.536Z,34.30
2019-03-27T12:39:41.234Z,35.80
2019-03-27T12:42:10.775Z,36.20
2019-03-27T12:44:39.254Z,35.20
2019-03-27T12:47:07.680Z,34.80
2019-03-27T12:49:36.186Z,36.00
2019-03-27T12:52:05.598Z,35.70
2019-03-27T12:54:34.446Z,35.10
2019-03-27T12:57:02.851Z,35.00
2019-03-27T12:59:31.385Z,35.60
2019-03-27T13:01:59.828Z,35.90
2019-03-27T13:04:28.231Z,35.60
2019-03-27T13:06:56.764Z,35.60
2019-03-27T13:09:25.617Z,35.40
2019-03-27T13:11:54.014Z,35.70
2019-03-27T13:14:22.490Z,35.80
2019-03-27T13:16:52.320Z,36.30
2019-03-27T13:19:20.964Z,36.10
2019-03-27T13:21:49.488Z,35.90
2019-03-27T13:24:17.950Z,35.80
2019-03-27T13:26:46.363Z,36.40
2019-03-27T13:29:14.835Z,35.80
2019-03-27T13:31:43.252Z,35.70
2019-03-27T13:34:11.671Z,35.30
2019-03-27T13:36:45.079Z,35.00
2019-03-27T13:39:13.515Z,35.40
2019-03-27T13:41:41.932Z,35.20
2019-03-27T13:44:10.474Z,33.70
2019-03-27T13:46:38.920Z,33.20
2019-03-27T13:49:07.303Z,33.30
2019-03-27T13:51:40.965Z,33.90
2019-03-27T13:54:06.089Z,34.20
2019-03-27T13:56:34.511Z,34.80
2019-03-27T13:59:03.057Z,34.50
2019-03-27T14:01:31.476Z,33.70
2019-03-27T14:04:01.012Z,33.30
2019-03-27T14:06:29.551Z,33.40
2019-03-27T14:08:57.978Z,32.60
2019-03-27T14:11:26.503Z,33.30
2019-03-27T14:13:55.052Z,33.00
2019-03-27T14:16:23.498Z,32.80
2019-03-27T14:18:51.920Z,32.80
2019-03-27T14:21:23.148Z,32.00
2019-03-27T14:23:50.678Z,32.30
2019-03-27T14:26:19.871Z,33.30
2019-03-27T14:28:48.411Z,33.00
2019-03-27T14:31:16.839Z,33.10
2019-03-27T14:33:45.275Z,34.40
2019-03-27T14:36:13.735Z,33.50
2019-03-27T14:38:42.170Z,33.50
2019-03-27T14:41:10.587Z,34.10
2019-03-27T14:43:39.074Z,34.10
2019-03-27T14:46:07.491Z,34.50
2019-03-27T14:48:35.907Z,34.20
2019-03-27T14:51:04.679Z,33.90
2019-03-27T14:53:33.099Z,34.00
2019-03-27T14:56:01.514Z,35.10
2019-03-27T14:58:29.966Z,34.70
2019-03-27T15:00:58.486Z,34.50
2019-03-27T15:03:26.886Z,34.50
2019-03-27T15:05:55.362Z,33.70
2019-03-27T15:08:23.771Z,34.30
2019-03-27T15:10:52.345Z,34.50
2019-03-27T15:13:21.206Z,34.60
2019-03-27T15:15:49.724Z,34.40
2019-03-27T15:18:18.151Z,34.90
2019-03-27T15:20:46.617Z,34.30
2019-03-27T15:23:15.088Z,35.20
2019-03-27T15:25:43.543Z,35.40
2019-03-27T15:28:12.092Z,35.60
2019-03-27T15:30:40.920Z,35.20
2019-03-27T15:33:09.342Z,35.50
2019-03-27T15:35:37.800Z,35.10
2019-03-27T15:38:06.699Z,35.20
2019-03-27T15:40:40.782Z,36.10
2019-03-27T15:43:09.214Z,36.40
2019-03-27T15:45:37.724Z,36.00
2019-03-27T15:48:06.310Z,35.90
2019-03-27T15:50:34.727Z,36.20
2019-03-27T15:53:03.169Z,35.90
2019-03-27T15:55:31.627Z,35.90
2019-03-27T15:58:00.051Z,36.00
2019-03-27T16:00:28.470Z,36.50
2019-03-27T16:02:56.954Z,36.20
2019-03-27T16:05:25.477Z,36.90
2019-03-27T16:07:53.939Z,36.30
2019-03-27T16:10:22.696Z,36.90
2019-03-27T16:12:51.115Z,37.00
2019-03-27T16:15:19.535Z,36.70
2019-03-27T16:17:48.010Z,36.40
2019-03-27T16:20:16.446Z,37.40
2019-03-27T16:22:50.515Z,37.00
2019-03-27T16:25:15.339Z,37.50
2019-03-27T16:27:43.763Z,37.50
2019-03-27T16:30:12.583Z,38.40
2019-03-27T16:32:41.558Z,38.40
2019-03-27T16:35:10.455Z,37.90
2019-03-27T16:37:39.293Z,38.20
2019-03-27T16:40:08.069Z,39.00
2019-03-27T16:42:36.524Z,38.60
2019-03-27T16:45:05.857Z,38.80
2019-03-27T16:47:34.774Z,38.80
2019-03-27T16:50:04.023Z,38.90
2019-03-27T16:52:32.434Z,39.20
2019-03-27T16:55:00.983Z,39.20
2019-03-27T16:57:29.413Z,39.70
2019-03-27T16:59:57.822Z,40.10
2019-03-27T17:02:26.886Z,40.20
2019-03-27T17:04:55.768Z,40.80
2019-03-27T17:07:24.297Z,40.60
2019-03-27T17:09:53.352Z,40.80
2019-03-27T17:12:21.787Z,41.00
2019-03-27T17:14:50.714Z,40.90
2019-03-27T17:17:19.267Z,41.20
2019-03-27T17:19:47.692Z,41.30
2019-03-27T17:22:19.684Z,41.50
2019-03-27T17:24:46.459Z,41.60
2019-03-27T17:27:14.929Z,41.80
2019-03-27T17:29:43.334Z,42.00
2019-03-27T17:32:11.814Z,42.00
2019-03-27T17:34:40.243Z,42.20
2019-03-27T17:37:08.663Z,42.60
2019-03-27T17:39:37.156Z,42.50
2019-03-27T17:42:05.566Z,42.60
2019-03-27T17:44:33.991Z,42.80
2019-03-27T17:47:02.480Z,43.10
2019-03-27T17:49:30.898Z,43.00
2019-03-27T17:51:59.318Z,43.30
2019-03-27T17:54:27.926Z,43.40
2019-03-27T17:56:56.364Z,43.50
2019-03-27T17:59:24.788Z,43.60
2019-03-27T18:01:53.265Z,43.80
2019-03-27T18:04:21.691Z,44.00
2019-03-27T18:06:50.141Z,44.10
2019-03-27T18:09:18.671Z,44.10
2019-03-27T18:11:47.454Z,44.40
2019-03-27T18:14:15.879Z,44.50
2019-03-27T18:16:44.370Z,44.80
2019-03-27T18:19:12.799Z,45.10
2019-03-27T18:21:41.606Z,45.50
2019-03-27T18:24:10.076Z,45.90
2019-03-27T18:26:38.657Z,46.20
2019-03-27T18:29:07.074Z,46.80
2019-03-27T18:31:35.628Z,47.00
2019-03-27T18:34:04.156Z,47.40
2019-03-27T18:36:32.573Z,47.80
2019-03-27T18:39:01.136Z,48.10
2019-03-27T18:41:29.602Z,48.70
2019-03-27T18:43:58.024Z,49.40
2019-03-27T18:46:26.560Z,50.00
2019-03-27T18:48:55.026Z,51.00
2019-03-27T18:51:23.501Z,51.60
2019-03-27T18:53:59.492Z,52.20
2019-03-27T18:56:22.656Z,53.00
2019-03-27T18:58:51.081Z,53.30
2019-03-27T19:01:19.554Z,53.70
2019-03-27T19:03:47.969Z,54.40
2019-03-27T19:06:16.475Z,54.90
2019-03-27T19:08:44.954Z,55.30
2019-03-27T19:11:13.749Z,55.70
2019-03-27T19:13:42.183Z,56.20
2019-03-27T19:16:10.675Z,56.50
2019-03-27T19:18:39.100Z,56.80
2019-03-27T19:21:07.923Z,57.10
2019-03-27T19:23:36.388Z,58.60
2019-03-27T19:26:04.846Z,58.10
2019-03-27T19:28:33.315Z,57.80
2019-03-27T19:31:01.834Z,58.10
2019-03-27T19:33:30.382Z,57.80
2019-03-27T19:35:58.812Z,57.80
2019-03-27T19:38:27.238Z,58.30
2019-03-27T19:40:55.790Z,58.40
2019-03-27T19:43:24.267Z,58.60
2019-03-27T19:45:52.705Z,59.90
2019-03-27T19:48:21.568Z,60.20
2019-03-27T19:50:50.007Z,60.40
2019-03-27T19:53:18.434Z,60.00
2019-03-27T19:55:46.904Z,60.60
2019-03-27T19:58:15.317Z,60.80
2019-03-27T20:00:43.872Z,61.00
2019-03-27T20:03:12.784Z,61.70
2019-03-27T20:05:41.324Z,62.70
2019-03-27T20:08:09.826Z,63.00
2019-03-27T20:10:38.244Z,63.00
2019-03-27T20:13:06.714Z,63.70
2019-03-27T20:15:35.124Z,65.00
2019-03-27T20:18:03.924Z,65.50
2019-03-27T20:20:32.335Z,66.20
2019-03-27T20:23:13.962Z,66.00
2019-03-27T20:25:30.982Z,66.20
2019-03-27T20:27:59.453Z,65.40
2019-03-27T20:30:28.092Z,65.30
2019-03-27T20:32:56.503Z,65.70
2019-03-27T20:35:24.966Z,66.30
2019-03-27T20:37:53.398Z,66.80
2019-03-27T20:40:22.058Z,66.80
2019-03-27T20:42:52.256Z,67.20
2019-03-27T20:45:20.777Z,67.10
2019-03-27T20:47:49.226Z,67.30
2019-03-27T20:50:18.746Z,67.20
2019-03-27T20:52:47.216Z,68.50
2019-03-27T20:55:29.300Z,67.90
2019-03-27T20:57:45.967Z,69.00
2019-03-27T21:00:14.985Z,69.10
2019-03-27T21:02:43.406Z,69.70
2019-03-27T21:05:11.961Z,69.60
2019-03-27T21:07:40.366Z,69.70
2019-03-27T21:10:10.467Z,69.70
2019-03-27T21:12:38.878Z,71.70
2019-03-27T21:15:08.287Z,72.70
2019-03-27T21:17:36.715Z,72.70
2019-03-27T21:20:05.932Z,73.60
2019-03-27T21:22:34.791Z,73.50
2019-03-27T21:25:09.016Z,73.00
2019-03-27T21:27:33.953Z,71.20
2019-03-27T21:30:02.838Z,70.90
2019-03-27T21:32:31.775Z,71.60
2019-03-27T21:35:00.436Z,71.30
2019-03-27T21:37:28.894Z,71.70
2019-03-27T21:39:57.311Z,71.10
2019-03-27T21:42:25.763Z,70.90
2019-03-27T21:44:54.170Z,70.00
2019-03-27T21:47:22.636Z,69.60
2019-03-27T21:49:51.145Z,69.70
2019-03-27T21:52:19.601Z,69.50
2019-03-27T21:54:48.027Z,68.60
2019-03-27T21:57:16.483Z,68.50
2019-03-27T21:59:44.967Z,68.50
2019-03-27T22:02:13.578Z,68.50
2019-03-27T22:04:41.993Z,67.80
2019-03-27T22:07:10.439Z,68.60
2019-03-27T22:09:38.867Z,67.80
2019-03-27T22:12:07.301Z,68.10
2019-03-27T22:14:35.758Z,67.50
2019-03-27T22:17:04.630Z,68.10
2019-03-27T22:19:33.093Z,68.00
2019-03-27T22:22:01.502Z,68.40
2019-03-27T22:24:29.981Z,68.70
2019-03-27T22:26:58.438Z,69.90
2019-03-27T22:29:26.939Z,69.60
2019-03-27T22:31:55.362Z,70.10
2019-03-27T22:34:23.810Z,69.60
2019-03-27T22:36:52.240Z,71.80
2019-03-27T22:39:20.716Z,72.30
2019-03-27T22:41:49.133Z,72.00
2019-03-27T22:44:17.586Z,73.10
2019-03-27T22:46:46.015Z,72.00
2019-03-27T22:49:14.427Z,71.30
2019-03-27T22:51:42.880Z,71.50
2019-03-27T22:54:11.315Z,72.10
2019-03-27T22:56:39.865Z,71.90
2019-03-27T22:59:08.304Z,71.60
2019-03-27T23:01:44.707Z,70.50
2019-03-27T23:04:13.130Z,69.90
2019-03-27T23:06:41.575Z,70.90
2019-03-27T23:09:10.078Z,70.20
2019-03-27T23:11:38.531Z,69.20
2019-03-27T23:14:06.947Z,68.00
2019-03-27T23:16:35.439Z,68.50
2019-03-27T23:19:03.965Z,67.70
2019-03-27T23:21:32.445Z,66.80
2019-03-27T23:24:00.906Z,69.80
2019-03-27T23:26:29.396Z,69.90
2019-03-27T23:28:57.834Z,70.10
2019-03-27T23:31:26.422Z,69.40
2019-03-27T23:33:54.882Z,69.20
2019-03-27T23:36:23.623Z,69.20
2019-03-27T23:38:52.076Z,69.20
2019-03-27T23:41:20.482Z,70.80
2019-03-27T23:43:49.127Z,71.30
2019-03-27T23:46:17.850Z,71.20
2019-03-27T23:48:46.330Z,72.20
2019-03-27T23:51:14.758Z,72.40
2019-03-27T23:53:43.213Z,73.70
2019-03-27T23:56:16.797Z,76.80
2019-03-27T23:58:41.875Z,77.60
